sensor_id;sensor_type;location;lat;lon;timestamp;temperature;humidity
11991;DHT22;6055;52.522;13.446;2022-08-21T00:02:22;20.00;99.90
11991;DHT22;6055;52.522;13.446;2022-08-21T00:04:49;20.00;99.90
11991;DHT22;6055;52.522;13.446;2022-08-21T00:07:16;19.90;99.90
11991;DHT22;6055;52.522;13.446;2022-08-21T00:09:42;20.00;99.90
11991;DHT22;6055;52.522;13.446;2022-08-21T00:12:08;20.00;99.90
11991;DHT22;6055;52.522;13.446;2022-08-21T00:14:34;20.00;99.90
11991;DHT22;6055;52.522;13.446;2022-08-21T00:17:00;20.00;99.90
11991;DHT22;6055;52.522;13.446;2022-08-21T00:19:26;20.00;99.90
11991;DHT22;6055;52.522;13.446;2022-08-21T00:21:53;19.90;99.90
11991;DHT22;6055;52.522;13.446;2022-08-21T00:24:19;19.90;99.90
11991;DHT22;6055;52.522;13.446;2022-08-21T00:26:45;19.90;99.90
11991;DHT22;6055;52.522;13.446;2022-08-21T00:29:11;19.90;99.90
11991;DHT22;6055;52.522;13.446;2022-08-21T00:31:37;19.90;99.90
11991;DHT22;6055;52.522;13.446;2022-08-21T00:34:03;19.90;99.90
11991;DHT22;6055;52.522;13.446;2022-08-21T00:36:29;19.80;99.90
11991;DHT22;6055;52.522;13.446;2022-08-21T00:38:55;19.80;99.90
11991;DHT22;6055;52.522;13.446;2022-08-21T00:41:21;19.80;99.90
11991;DHT22;6055;52.522;13.446;2022-08-21T00:43:49;19.70;99.90
11991;DHT22;6055;52.522;13.446;2022-08-21T00:46:15;19.70;99.90
11991;DHT22;6055;52.522;13.446;2022-08-21T00:48:40;19.70;99.90
11991;DHT22;6055;52.522;13.446;2022-08-21T00:51:14;19.70;99.90
11991;DHT22;6055;52.522;13.446;2022-08-21T00:53:44;19.60;99.90
11991;DHT22;6055;52.522;13.446;2022-08-21T00:56:11;19.60;99.90
11991;DHT22;6055;52.522;13.446;2022-08-21T00:58:39;19.60;99.90
11991;DHT22;6055;52.522;13.446;2022-08-21T01:01:08;19.60;99.90
11991;DHT22;6055;52.522;13.446;2022-08-21T01:03:34;19.70;99.90
11991;DHT22;6055;52.522;13.446;2022-08-21T01:06:02;19.70;99.90
11991;DHT22;6055;52.522;13.446;2022-08-21T01:08:29;19.70;99.90
11991;DHT22;6055;52.522;13.446;2022-08-21T01:10:55;19.70;99.90
11991;DHT22;6055;52.522;13.446;2022-08-21T01:13:23;19.60;99.90
11991;DHT22;6055;52.522;13.446;2022-08-21T01:15:50;19.60;99.90
11991;DHT22;6055;52.522;13.446;2022-08-21T01:18:19;19.60;99.90
11991;DHT22;6055;52.522;13.446;2022-08-21T01:21:38;19.60;99.90
11991;DHT22;6055;52.522;13.446;2022-08-21T01:23:48;19.60;99.90
11991;DHT22;6055;52.522;13.446;2022-08-21T01:26:16;19.60;99.90
11991;DHT22;6055;52.522;13.446;2022-08-21T01:28:50;19.50;99.90
11991;DHT22;6055;52.522;13.446;2022-08-21T01:31:17;19.50;99.90
11991;DHT22;6055;52.522;13.446;2022-08-21T01:33:44;19.60;99.90
11991;DHT22;6055;52.522;13.446;2022-08-21T01:36:10;19.50;99.90
11991;DHT22;6055;52.522;13.446;2022-08-21T01:38:35;19.50;99.90
11991;DHT22;6055;52.522;13.446;2022-08-21T01:41:01;19.40;99.90
11991;DHT22;6055;52.522;13.446;2022-08-21T01:43:26;19.40;99.90
11991;DHT22;6055;52.522;13.446;2022-08-21T01:45:52;19.40;99.90
11991;DHT22;6055;52.522;13.446;2022-08-21T01:48:17;19.40;99.90
11991;DHT22;6055;52.522;13.446;2022-08-21T01:50:43;19.40;99.90
11991;DHT22;6055;52.522;13.446;2022-08-21T01:53:08;19.40;99.90
11991;DHT22;6055;52.522;13.446;2022-08-21T01:55:34;19.40;99.90
11991;DHT22;6055;52.522;13.446;2022-08-21T01:57:59;19.30;99.90
11991;DHT22;6055;52.522;13.446;2022-08-21T02:00:25;19.30;99.90
11991;DHT22;6055;52.522;13.446;2022-08-21T02:02:51;19.20;99.90
11991;DHT22;6055;52.522;13.446;2022-08-21T02:05:18;19.20;99.90
11991;DHT22;6055;52.522;13.446;2022-08-21T02:07:47;19.10;99.90
11991;DHT22;6055;52.522;13.446;2022-08-21T02:10:30;19.10;99.90
11991;DHT22;6055;52.522;13.446;2022-08-21T02:12:56;19.10;99.90
11991;DHT22;6055;52.522;13.446;2022-08-21T02:15:22;19.00;99.90
11991;DHT22;6055;52.522;13.446;2022-08-21T02:17:56;19.10;99.90
11991;DHT22;6055;52.522;13.446;2022-08-21T02:20:28;19.00;99.90
11991;DHT22;6055;52.522;13.446;2022-08-21T02:22:54;19.00;99.90
11991;DHT22;6055;52.522;13.446;2022-08-21T02:25:21;19.00;99.90
11991;DHT22;6055;52.522;13.446;2022-08-21T02:27:48;18.90;99.90
11991;DHT22;6055;52.522;13.446;2022-08-21T02:30:26;18.90;99.90
11991;DHT22;6055;52.522;13.446;2022-08-21T02:32:52;18.90;99.90
11991;DHT22;6055;52.522;13.446;2022-08-21T02:35:18;18.90;99.90
11991;DHT22;6055;52.522;13.446;2022-08-21T02:37:56;18.90;99.90
11991;DHT22;6055;52.522;13.446;2022-08-21T02:40:25;18.80;99.90
11991;DHT22;6055;52.522;13.446;2022-08-21T02:42:51;18.80;99.90
11991;DHT22;6055;52.522;13.446;2022-08-21T02:45:18;18.80;99.90
11991;DHT22;6055;52.522;13.446;2022-08-21T02:47:52;18.70;99.90
11991;DHT22;6055;52.522;13.446;2022-08-21T02:50:24;18.70;99.90
11991;DHT22;6055;52.522;13.446;2022-08-21T02:52:50;18.70;99.90
11991;DHT22;6055;52.522;13.446;2022-08-21T02:55:18;18.70;99.90
11991;DHT22;6055;52.522;13.446;2022-08-21T02:57:45;18.70;99.90
11991;DHT22;6055;52.522;13.446;2022-08-21T03:00:11;18.70;99.90
11991;DHT22;6055;52.522;13.446;2022-08-21T03:02:38;18.60;99.90
11991;DHT22;6055;52.522;13.446;2022-08-21T03:05:05;18.50;99.90
11991;DHT22;6055;52.522;13.446;2022-08-21T03:07:31;18.50;99.90
11991;DHT22;6055;52.522;13.446;2022-08-21T03:09:56;18.60;99.90
11991;DHT22;6055;52.522;13.446;2022-08-21T03:12:23;18.60;99.90
11991;DHT22;6055;52.522;13.446;2022-08-21T03:14:48;18.60;99.90
11991;DHT22;6055;52.522;13.446;2022-08-21T03:17:13;18.60;99.90
11991;DHT22;6055;52.522;13.446;2022-08-21T03:19:39;18.60;99.90
11991;DHT22;6055;52.522;13.446;2022-08-21T03:22:04;18.50;99.90
11991;DHT22;6055;52.522;13.446;2022-08-21T03:24:30;18.50;99.90
11991;DHT22;6055;52.522;13.446;2022-08-21T03:26:56;18.50;99.90
11991;DHT22;6055;52.522;13.446;2022-08-21T03:29:22;18.50;99.90
11991;DHT22;6055;52.522;13.446;2022-08-21T03:31:47;18.50;99.90
11991;DHT22;6055;52.522;13.446;2022-08-21T03:34:13;18.40;99.90
11991;DHT22;6055;52.522;13.446;2022-08-21T03:36:39;18.40;99.90
11991;DHT22;6055;52.522;13.446;2022-08-21T03:39:04;18.30;99.90
11991;DHT22;6055;52.522;13.446;2022-08-21T03:41:30;18.30;99.90
11991;DHT22;6055;52.522;13.446;2022-08-21T03:43:56;18.40;99.90
11991;DHT22;6055;52.522;13.446;2022-08-21T03:46:21;18.30;99.90
11991;DHT22;6055;52.522;13.446;2022-08-21T03:48:47;18.30;99.90
11991;DHT22;6055;52.522;13.446;2022-08-21T03:51:12;18.30;99.90
11991;DHT22;6055;52.522;13.446;2022-08-21T03:53:38;18.30;99.90
11991;DHT22;6055;52.522;13.446;2022-08-21T03:56:05;18.30;99.90
11991;DHT22;6055;52.522;13.446;2022-08-21T03:58:31;18.30;99.90
11991;DHT22;6055;52.522;13.446;2022-08-21T04:00:59;18.30;99.90
11991;DHT22;6055;52.522;13.446;2022-08-21T04:03:26;18.30;99.90
11991;DHT22;6055;52.522;13.446;2022-08-21T04:05:51;18.30;99.90
11991;DHT22;6055;52.522;13.446;2022-08-21T04:08:17;18.20;99.90
11991;DHT22;6055;52.522;13.446;2022-08-21T04:10:46;18.20;99.90
11991;DHT22;6055;52.522;13.446;2022-08-21T04:13:12;18.20;99.90
11991;DHT22;6055;52.522;13.446;2022-08-21T04:15:38;18.20;99.90
11991;DHT22;6055;52.522;13.446;2022-08-21T04:18:04;18.20;99.90
11991;DHT22;6055;52.522;13.446;2022-08-21T04:20:29;18.10;99.90
11991;DHT22;6055;52.522;13.446;2022-08-21T04:22:55;18.10;99.90
11991;DHT22;6055;52.522;13.446;2022-08-21T04:25:22;18.10;99.90
11991;DHT22;6055;52.522;13.446;2022-08-21T04:27:49;18.10;99.90
11991;DHT22;6055;52.522;13.446;2022-08-21T04:30:15;18.10;99.90
11991;DHT22;6055;52.522;13.446;2022-08-21T04:32:49;18.10;99.90
11991;DHT22;6055;52.522;13.446;2022-08-21T04:35:18;18.10;99.90
11991;DHT22;6055;52.522;13.446;2022-08-21T04:37:44;18.10;99.90
11991;DHT22;6055;52.522;13.446;2022-08-21T04:40:13;18.10;99.90
11991;DHT22;6055;52.522;13.446;2022-08-21T04:42:57;18.20;99.90
11991;DHT22;6055;52.522;13.446;2022-08-21T04:47:52;18.20;99.90
11991;DHT22;6055;52.522;13.446;2022-08-21T04:50:19;18.10;99.90
11991;DHT22;6055;52.522;13.446;2022-08-21T04:52:46;18.20;99.90
11991;DHT22;6055;52.522;13.446;2022-08-21T04:55:12;18.10;99.90
11991;DHT22;6055;52.522;13.446;2022-08-21T04:57:39;18.20;99.90
11991;DHT22;6055;52.522;13.446;2022-08-21T05:00:06;18.10;99.90
11991;DHT22;6055;52.522;13.446;2022-08-21T05:02:32;18.10;99.90
11991;DHT22;6055;52.522;13.446;2022-08-21T05:04:59;18.20;99.90
11991;DHT22;6055;52.522;13.446;2022-08-21T05:07:28;18.20;99.90
11991;DHT22;6055;52.522;13.446;2022-08-21T05:09:55;18.20;99.90
11991;DHT22;6055;52.522;13.446;2022-08-21T05:12:21;18.30;99.90
11991;DHT22;6055;52.522;13.446;2022-08-21T05:14:47;18.30;99.90
11991;DHT22;6055;52.522;13.446;2022-08-21T05:17:13;18.30;99.90
11991;DHT22;6055;52.522;13.446;2022-08-21T05:19:39;18.30;99.90
11991;DHT22;6055;52.522;13.446;2022-08-21T05:22:05;18.30;99.90
11991;DHT22;6055;52.522;13.446;2022-08-21T05:24:31;18.30;99.90
11991;DHT22;6055;52.522;13.446;2022-08-21T05:26:57;18.40;99.90
11991;DHT22;6055;52.522;13.446;2022-08-21T05:29:24;18.50;99.90
11991;DHT22;6055;52.522;13.446;2022-08-21T05:31:49;18.50;99.90
11991;DHT22;6055;52.522;13.446;2022-08-21T05:34:18;18.50;99.90
11991;DHT22;6055;52.522;13.446;2022-08-21T05:36:44;18.50;99.90
11991;DHT22;6055;52.522;13.446;2022-08-21T05:39:10;18.50;99.90
11991;DHT22;6055;52.522;13.446;2022-08-21T05:41:36;18.60;99.90
11991;DHT22;6055;52.522;13.446;2022-08-21T05:44:01;18.60;99.90
11991;DHT22;6055;52.522;13.446;2022-08-21T05:46:27;18.70;99.90
11991;DHT22;6055;52.522;13.446;2022-08-21T05:48:52;18.60;99.90
11991;DHT22;6055;52.522;13.446;2022-08-21T05:51:17;18.60;99.90
11991;DHT22;6055;52.522;13.446;2022-08-21T05:53:44;18.60;99.90
11991;DHT22;6055;52.522;13.446;2022-08-21T05:56:11;18.70;99.90
11991;DHT22;6055;52.522;13.446;2022-08-21T05:58:37;18.60;99.90
11991;DHT22;6055;52.522;13.446;2022-08-21T06:01:03;18.70;99.90
11991;DHT22;6055;52.522;13.446;2022-08-21T06:03:32;18.70;99.90
11991;DHT22;6055;52.522;13.446;2022-08-21T06:05:59;18.70;99.90
11991;DHT22;6055;52.522;13.446;2022-08-21T06:08:25;18.70;99.90
11991;DHT22;6055;52.522;13.446;2022-08-21T06:10:52;18.70;99.90
11991;DHT22;6055;52.522;13.446;2022-08-21T06:13:19;18.60;99.90
11991;DHT22;6055;52.522;13.446;2022-08-21T06:15:45;18.70;99.90
11991;DHT22;6055;52.522;13.446;2022-08-21T06:18:10;18.80;99.90
11991;DHT22;6055;52.522;13.446;2022-08-21T06:20:36;18.80;99.90
11991;DHT22;6055;52.522;13.446;2022-08-21T06:23:02;18.80;99.90
11991;DHT22;6055;52.522;13.446;2022-08-21T06:25:28;18.80;99.90
11991;DHT22;6055;52.522;13.446;2022-08-21T06:28:04;18.90;99.90
11991;DHT22;6055;52.522;13.446;2022-08-21T06:30:31;18.90;99.90
11991;DHT22;6055;52.522;13.446;2022-08-21T06:32:56;18.80;99.90
11991;DHT22;6055;52.522;13.446;2022-08-21T06:35:22;18.90;99.90
11991;DHT22;6055;52.522;13.446;2022-08-21T06:37:49;19.00;99.90
11991;DHT22;6055;52.522;13.446;2022-08-21T06:40:15;19.10;99.90
11991;DHT22;6055;52.522;13.446;2022-08-21T06:42:41;19.20;99.90
11991;DHT22;6055;52.522;13.446;2022-08-21T06:45:06;19.20;99.90
11991;DHT22;6055;52.522;13.446;2022-08-21T06:47:32;19.30;99.90
11991;DHT22;6055;52.522;13.446;2022-08-21T06:49:58;19.30;99.90
11991;DHT22;6055;52.522;13.446;2022-08-21T06:52:23;19.30;99.90
11991;DHT22;6055;52.522;13.446;2022-08-21T06:54:52;19.30;99.90
11991;DHT22;6055;52.522;13.446;2022-08-21T06:57:17;19.30;99.90
11991;DHT22;6055;52.522;13.446;2022-08-21T06:59:43;19.30;99.90
11991;DHT22;6055;52.522;13.446;2022-08-21T07:02:08;19.40;99.90
11991;DHT22;6055;52.522;13.446;2022-08-21T07:04:34;19.50;99.90
11991;DHT22;6055;52.522;13.446;2022-08-21T07:06:59;19.70;99.90
11991;DHT22;6055;52.522;13.446;2022-08-21T07:09:25;19.70;99.90
11991;DHT22;6055;52.522;13.446;2022-08-21T07:11:53;19.70;99.90
11991;DHT22;6055;52.522;13.446;2022-08-21T07:14:19;19.70;99.90
11991;DHT22;6055;52.522;13.446;2022-08-21T07:16:44;19.70;99.90
11991;DHT22;6055;52.522;13.446;2022-08-21T07:19:10;19.70;99.90
11991;DHT22;6055;52.522;13.446;2022-08-21T07:21:36;19.80;99.90
11991;DHT22;6055;52.522;13.446;2022-08-21T07:24:02;19.80;99.90
11991;DHT22;6055;52.522;13.446;2022-08-21T07:26:27;19.90;99.90
11991;DHT22;6055;52.522;13.446;2022-08-21T07:28:53;19.90;99.90
11991;DHT22;6055;52.522;13.446;2022-08-21T07:31:21;20.00;99.90
11991;DHT22;6055;52.522;13.446;2022-08-21T07:33:47;20.00;99.90
11991;DHT22;6055;52.522;13.446;2022-08-21T07:36:13;20.10;99.90
11991;DHT22;6055;52.522;13.446;2022-08-21T07:38:39;20.00;99.90
11991;DHT22;6055;52.522;13.446;2022-08-21T07:41:13;20.00;99.90
11991;DHT22;6055;52.522;13.446;2022-08-21T07:43:39;20.10;99.90
11991;DHT22;6055;52.522;13.446;2022-08-21T07:46:05;20.20;99.90
11991;DHT22;6055;52.522;13.446;2022-08-21T07:48:30;20.20;99.90
11991;DHT22;6055;52.522;13.446;2022-08-21T07:51:07;20.30;99.90
11991;DHT22;6055;52.522;13.446;2022-08-21T07:53:34;20.30;99.90
11991;DHT22;6055;52.522;13.446;2022-08-21T07:56:00;20.40;99.90
11991;DHT22;6055;52.522;13.446;2022-08-21T07:58:25;20.30;99.90
11991;DHT22;6055;52.522;13.446;2022-08-21T08:00:54;20.40;99.90
11991;DHT22;6055;52.522;13.446;2022-08-21T08:03:19;20.40;99.90
11991;DHT22;6055;52.522;13.446;2022-08-21T08:05:45;20.40;99.90
11991;DHT22;6055;52.522;13.446;2022-08-21T08:08:10;20.40;99.90
11991;DHT22;6055;52.522;13.446;2022-08-21T08:10:38;20.50;99.90
11991;DHT22;6055;52.522;13.446;2022-08-21T08:13:04;20.50;99.90
11991;DHT22;6055;52.522;13.446;2022-08-21T08:15:30;20.60;99.90
11991;DHT22;6055;52.522;13.446;2022-08-21T08:17:56;20.60;99.90
11991;DHT22;6055;52.522;13.446;2022-08-21T08:20:23;20.60;99.90
11991;DHT22;6055;52.522;13.446;2022-08-21T08:22:50;20.70;99.90
11991;DHT22;6055;52.522;13.446;2022-08-21T08:25:18;20.80;99.90
11991;DHT22;6055;52.522;13.446;2022-08-21T08:27:45;20.80;99.90
11991;DHT22;6055;52.522;13.446;2022-08-21T08:30:14;20.90;99.90
11991;DHT22;6055;52.522;13.446;2022-08-21T08:32:40;21.00;99.90
11991;DHT22;6055;52.522;13.446;2022-08-21T08:35:07;21.10;99.90
11991;DHT22;6055;52.522;13.446;2022-08-21T08:37:33;21.20;99.90
11991;DHT22;6055;52.522;13.446;2022-08-21T08:40:01;21.30;99.90
11991;DHT22;6055;52.522;13.446;2022-08-21T08:42:32;21.40;99.90
11991;DHT22;6055;52.522;13.446;2022-08-21T08:47:32;21.50;99.90
11991;DHT22;6055;52.522;13.446;2022-08-21T08:50:11;21.60;99.90
11991;DHT22;6055;52.522;13.446;2022-08-21T08:52:47;21.50;99.90
11991;DHT22;6055;52.522;13.446;2022-08-21T08:55:17;21.50;99.90
11991;DHT22;6055;52.522;13.446;2022-08-21T08:57:47;21.60;99.90
11991;DHT22;6055;52.522;13.446;2022-08-21T09:00:15;21.70;99.90
11991;DHT22;6055;52.522;13.446;2022-08-21T09:02:45;21.70;99.90
11991;DHT22;6055;52.522;13.446;2022-08-21T09:05:32;21.80;99.90
11991;DHT22;6055;52.522;13.446;2022-08-21T09:11:01;21.90;99.90
11991;DHT22;6055;52.522;13.446;2022-08-21T09:16:27;22.10;99.90
11991;DHT22;6055;52.522;13.446;2022-08-21T09:19:33;22.10;99.90
11991;DHT22;6055;52.522;13.446;2022-08-21T09:22:08;22.20;99.90
11991;DHT22;6055;52.522;13.446;2022-08-21T09:24:59;22.30;99.90
11991;DHT22;6055;52.522;13.446;2022-08-21T09:27:28;22.30;99.90
11991;DHT22;6055;52.522;13.446;2022-08-21T09:29:55;22.10;99.90
11991;DHT22;6055;52.522;13.446;2022-08-21T09:32:29;22.10;99.90
11991;DHT22;6055;52.522;13.446;2022-08-21T09:35:14;22.20;99.90
11991;DHT22;6055;52.522;13.446;2022-08-21T09:37:50;22.10;99.90
11991;DHT22;6055;52.522;13.446;2022-08-21T09:43:04;22.20;99.90
11991;DHT22;6055;52.522;13.446;2022-08-21T09:45:31;22.20;99.90
11991;DHT22;6055;52.522;13.446;2022-08-21T09:50:38;22.50;99.90
11991;DHT22;6055;52.522;13.446;2022-08-21T09:53:13;22.50;99.90
11991;DHT22;6055;52.522;13.446;2022-08-21T09:56:16;22.60;99.90
11991;DHT22;6055;52.522;13.446;2022-08-21T09:58:55;22.60;99.90
11991;DHT22;6055;52.522;13.446;2022-08-21T10:01:22;22.80;98.90
11991;DHT22;6055;52.522;13.446;2022-08-21T10:04:02;22.80;99.20
11991;DHT22;6055;52.522;13.446;2022-08-21T10:06:28;22.90;98.70
11991;DHT22;6055;52.522;13.446;2022-08-21T10:09:11;22.90;98.10
11991;DHT22;6055;52.522;13.446;2022-08-21T10:11:38;23.20;98.10
11991;DHT22;6055;52.522;13.446;2022-08-21T10:14:43;23.20;97.70
11991;DHT22;6055;52.522;13.446;2022-08-21T10:20:20;23.30;97.30
11991;DHT22;6055;52.522;13.446;2022-08-21T10:28:47;23.60;97.00
11991;DHT22;6055;52.522;13.446;2022-08-21T10:31:24;23.60;95.80
11991;DHT22;6055;52.522;13.446;2022-08-21T10:34:26;23.60;95.30
11991;DHT22;6055;52.522;13.446;2022-08-21T10:37:16;23.70;95.70
11991;DHT22;6055;52.522;13.446;2022-08-21T10:40:09;23.80;96.20
11991;DHT22;6055;52.522;13.446;2022-08-21T10:48:07;24.40;94.80
11991;DHT22;6055;52.522;13.446;2022-08-21T10:50:43;24.40;92.60
11991;DHT22;6055;52.522;13.446;2022-08-21T10:53:32;24.60;94.20
11991;DHT22;6055;52.522;13.446;2022-08-21T10:56:11;24.70;93.30
11991;DHT22;6055;52.522;13.446;2022-08-21T10:58:45;24.60;93.40
11991;DHT22;6055;52.522;13.446;2022-08-21T11:01:20;24.40;92.20
11991;DHT22;6055;52.522;13.446;2022-08-21T11:03:54;24.40;92.80
11991;DHT22;6055;52.522;13.446;2022-08-21T11:06:27;24.40;93.20
11991;DHT22;6055;52.522;13.446;2022-08-21T11:09:18;24.40;93.20
11991;DHT22;6055;52.522;13.446;2022-08-21T11:11:50;24.70;91.50
11991;DHT22;6055;52.522;13.446;2022-08-21T11:16:56;25.30;89.60
11991;DHT22;6055;52.522;13.446;2022-08-21T11:19:53;26.10;88.70
11991;DHT22;6055;52.522;13.446;2022-08-21T11:22:40;26.80;85.90
11991;DHT22;6055;52.522;13.446;2022-08-21T11:25:33;26.40;84.70
11991;DHT22;6055;52.522;13.446;2022-08-21T11:28:10;26.60;83.00
11991;DHT22;6055;52.522;13.446;2022-08-21T11:31:08;26.80;80.60
11991;DHT22;6055;52.522;13.446;2022-08-21T11:33:41;27.00;80.90
11991;DHT22;6055;52.522;13.446;2022-08-21T11:39:26;27.90;77.50
11991;DHT22;6055;52.522;13.446;2022-08-21T11:42:08;28.10;76.30
11991;DHT22;6055;52.522;13.446;2022-08-21T11:47:17;28.40;73.10
11991;DHT22;6055;52.522;13.446;2022-08-21T11:52:38;29.30;68.80
11991;DHT22;6055;52.522;13.446;2022-08-21T11:55:12;29.60;63.00
11991;DHT22;6055;52.522;13.446;2022-08-21T12:01:05;29.70;60.10
11991;DHT22;6055;52.522;13.446;2022-08-21T12:03:40;30.00;59.20
11991;DHT22;6055;52.522;13.446;2022-08-21T12:06:10;30.10;57.90
11991;DHT22;6055;52.522;13.446;2022-08-21T12:08:39;30.30;58.10
11991;DHT22;6055;52.522;13.446;2022-08-21T12:13:52;30.10;58.20
11991;DHT22;6055;52.522;13.446;2022-08-21T12:16:36;29.70;57.70
11991;DHT22;6055;52.522;13.446;2022-08-21T12:19:09;28.90;54.90
11991;DHT22;6055;52.522;13.446;2022-08-21T12:21:58;28.90;57.40
11991;DHT22;6055;52.522;13.446;2022-08-21T12:27:12;29.20;55.70
11991;DHT22;6055;52.522;13.446;2022-08-21T12:29:38;29.20;57.00
11991;DHT22;6055;52.522;13.446;2022-08-21T12:32:24;29.20;56.00
11991;DHT22;6055;52.522;13.446;2022-08-21T12:35:04;29.30;56.50
11991;DHT22;6055;52.522;13.446;2022-08-21T12:37:47;30.10;54.90
11991;DHT22;6055;52.522;13.446;2022-08-21T12:40:28;30.50;53.80
11991;DHT22;6055;52.522;13.446;2022-08-21T12:42:58;30.30;55.60
11991;DHT22;6055;52.522;13.446;2022-08-21T12:45:36;30.50;54.80
11991;DHT22;6055;52.522;13.446;2022-08-21T12:51:15;30.90;53.40
11991;DHT22;6055;52.522;13.446;2022-08-21T12:53:48;31.40;51.80
11991;DHT22;6055;52.522;13.446;2022-08-21T12:56:30;31.10;51.10
11991;DHT22;6055;52.522;13.446;2022-08-21T12:59:10;31.10;52.80
11991;DHT22;6055;52.522;13.446;2022-08-21T13:01:45;31.10;51.20
11991;DHT22;6055;52.522;13.446;2022-08-21T13:04:17;30.80;52.10
11991;DHT22;6055;52.522;13.446;2022-08-21T13:06:49;30.80;50.70
11991;DHT22;6055;52.522;13.446;2022-08-21T13:09:20;30.80;52.70
11991;DHT22;6055;52.522;13.446;2022-08-21T13:11:48;30.30;50.70
11991;DHT22;6055;52.522;13.446;2022-08-21T13:14:29;29.60;53.70
11991;DHT22;6055;52.522;13.446;2022-08-21T13:16:57;28.90;52.70
11991;DHT22;6055;52.522;13.446;2022-08-21T13:19:24;28.30;54.60
11991;DHT22;6055;52.522;13.446;2022-08-21T13:21:51;28.50;55.00
11991;DHT22;6055;52.522;13.446;2022-08-21T13:24:24;28.50;54.70
11991;DHT22;6055;52.522;13.446;2022-08-21T13:26:50;28.90;57.00
11991;DHT22;6055;52.522;13.446;2022-08-21T13:29:19;29.40;55.10
11991;DHT22;6055;52.522;13.446;2022-08-21T13:31:54;29.70;53.80
11991;DHT22;6055;52.522;13.446;2022-08-21T13:34:24;29.80;54.30
11991;DHT22;6055;52.522;13.446;2022-08-21T13:36:57;29.00;56.20
11991;DHT22;6055;52.522;13.446;2022-08-21T13:39:24;28.80;55.90
11991;DHT22;6055;52.522;13.446;2022-08-21T13:41:55;28.80;56.90
11991;DHT22;6055;52.522;13.446;2022-08-21T13:44:34;29.10;59.00
11991;DHT22;6055;52.522;13.446;2022-08-21T13:47:03;29.20;56.90
11991;DHT22;6055;52.522;13.446;2022-08-21T13:49:42;28.90;56.90
11991;DHT22;6055;52.522;13.446;2022-08-21T13:52:19;28.90;58.20
11991;DHT22;6055;52.522;13.446;2022-08-21T13:54:53;28.80;57.80
11991;DHT22;6055;52.522;13.446;2022-08-21T13:57:27;28.90;57.50
11991;DHT22;6055;52.522;13.446;2022-08-21T14:00:28;28.40;57.40
11991;DHT22;6055;52.522;13.446;2022-08-21T14:03:04;27.70;58.60
11991;DHT22;6055;52.522;13.446;2022-08-21T14:05:33;26.80;59.70
11991;DHT22;6055;52.522;13.446;2022-08-21T14:08:24;26.30;63.10
11991;DHT22;6055;52.522;13.446;2022-08-21T14:10:51;26.00;66.50
11991;DHT22;6055;52.522;13.446;2022-08-21T14:13:34;25.90;66.30
11991;DHT22;6055;52.522;13.446;2022-08-21T14:16:10;26.40;66.80
11991;DHT22;6055;52.522;13.446;2022-08-21T14:21:33;27.00;65.90
11991;DHT22;6055;52.522;13.446;2022-08-21T14:24:03;27.30;65.80
11991;DHT22;6055;52.522;13.446;2022-08-21T14:26:29;27.40;65.10
11991;DHT22;6055;52.522;13.446;2022-08-21T14:28:59;27.50;65.00
11991;DHT22;6055;52.522;13.446;2022-08-21T14:31:29;27.60;64.90
11991;DHT22;6055;52.522;13.446;2022-08-21T14:33:56;27.80;64.60
11991;DHT22;6055;52.522;13.446;2022-08-21T14:36:21;27.70;63.60
11991;DHT22;6055;52.522;13.446;2022-08-21T14:38:47;27.40;63.80
11991;DHT22;6055;52.522;13.446;2022-08-21T14:41:18;27.10;66.50
11991;DHT22;6055;52.522;13.446;2022-08-21T14:43:47;26.60;66.10
11991;DHT22;6055;52.522;13.446;2022-08-21T14:46:18;26.20;66.40
11991;DHT22;6055;52.522;13.446;2022-08-21T14:48:45;26.00;69.10
11991;DHT22;6055;52.522;13.446;2022-08-21T14:51:12;25.60;69.90
11991;DHT22;6055;52.522;13.446;2022-08-21T14:53:38;25.40;70.00
11991;DHT22;6055;52.522;13.446;2022-08-21T14:56:04;25.10;71.80
11991;DHT22;6055;52.522;13.446;2022-08-21T14:58:30;24.80;71.50
11991;DHT22;6055;52.522;13.446;2022-08-21T15:00:56;24.80;73.30
11991;DHT22;6055;52.522;13.446;2022-08-21T15:03:24;24.60;74.70
11991;DHT22;6055;52.522;13.446;2022-08-21T15:05:50;24.50;76.00
11991;DHT22;6055;52.522;13.446;2022-08-21T15:08:16;24.40;75.60
11991;DHT22;6055;52.522;13.446;2022-08-21T15:10:42;24.40;77.90
11991;DHT22;6055;52.522;13.446;2022-08-21T15:13:08;24.40;79.00
11991;DHT22;6055;52.522;13.446;2022-08-21T15:15:41;24.40;82.20
11991;DHT22;6055;52.522;13.446;2022-08-21T15:18:07;24.40;82.50
11991;DHT22;6055;52.522;13.446;2022-08-21T15:20:33;24.40;81.30
11991;DHT22;6055;52.522;13.446;2022-08-21T15:22:59;24.40;80.60
11991;DHT22;6055;52.522;13.446;2022-08-21T15:25:24;24.40;78.90
11991;DHT22;6055;52.522;13.446;2022-08-21T15:27:50;24.30;78.80
11991;DHT22;6055;52.522;13.446;2022-08-21T15:30:16;24.30;79.30
11991;DHT22;6055;52.522;13.446;2022-08-21T15:32:41;24.40;81.50
11991;DHT22;6055;52.522;13.446;2022-08-21T15:35:07;24.40;80.20
11991;DHT22;6055;52.522;13.446;2022-08-21T15:37:33;24.40;81.90
11991;DHT22;6055;52.522;13.446;2022-08-21T15:39:59;24.40;81.80
11991;DHT22;6055;52.522;13.446;2022-08-21T15:42:25;24.40;82.10
11991;DHT22;6055;52.522;13.446;2022-08-21T15:44:54;24.40;82.10
11991;DHT22;6055;52.522;13.446;2022-08-21T15:47:24;24.50;82.00
11991;DHT22;6055;52.522;13.446;2022-08-21T15:49:50;24.60;82.90
11991;DHT22;6055;52.522;13.446;2022-08-21T15:52:17;24.80;80.00
11991;DHT22;6055;52.522;13.446;2022-08-21T15:54:43;24.90;80.80
11991;DHT22;6055;52.522;13.446;2022-08-21T15:57:11;24.90;79.90
11991;DHT22;6055;52.522;13.446;2022-08-21T15:59:43;24.80;78.50
11991;DHT22;6055;52.522;13.446;2022-08-21T16:02:23;24.70;80.50
11991;DHT22;6055;52.522;13.446;2022-08-21T16:04:49;24.60;80.90
11991;DHT22;6055;52.522;13.446;2022-08-21T16:07:15;24.50;82.20
11991;DHT22;6055;52.522;13.446;2022-08-21T16:09:41;24.40;81.70
11991;DHT22;6055;52.522;13.446;2022-08-21T16:12:07;24.20;81.50
11991;DHT22;6055;52.522;13.446;2022-08-21T16:14:35;24.20;82.60
11991;DHT22;6055;52.522;13.446;2022-08-21T16:17:05;24.20;83.50
11991;DHT22;6055;52.522;13.446;2022-08-21T16:19:31;24.40;83.20
11991;DHT22;6055;52.522;13.446;2022-08-21T16:21:57;24.60;82.40
11991;DHT22;6055;52.522;13.446;2022-08-21T16:24:23;24.70;82.90
11991;DHT22;6055;52.522;13.446;2022-08-21T16:26:49;24.90;82.00
11991;DHT22;6055;52.522;13.446;2022-08-21T16:29:15;25.00;80.30
11991;DHT22;6055;52.522;13.446;2022-08-21T16:31:41;25.00;80.40
11991;DHT22;6055;52.522;13.446;2022-08-21T16:34:07;25.10;79.00
11991;DHT22;6055;52.522;13.446;2022-08-21T16:36:37;25.20;80.20
11991;DHT22;6055;52.522;13.446;2022-08-21T16:39:03;25.00;79.60
11991;DHT22;6055;52.522;13.446;2022-08-21T16:41:32;24.90;80.50
11991;DHT22;6055;52.522;13.446;2022-08-21T16:43:58;24.70;80.90